This is the latest recevied weather packets stored in our database for station/object GAPWX. If no packets are shown the sender has not sent any weather packets the latest 10 day(s).
| Time | Temp. | Humidity | Pressure | Rain* | Wind** | Luminosity | Snow |
|---|---|---|---|---|---|---|---|
| 1778194805 | 20° C | 36% | 1019.6 hPa | 0 mm | - | - | - |
| 1778192999 | 20.56° C | 36% | 1019.8 hPa | 0 mm | - | - | - |
| 1778190294 | 21.11° C | 36% | 1020.1 hPa | 0 mm | - | - | - |
| 1778186067 | 20.56° C | 35% | 1020.3 hPa | 0 mm | - | - | - |
| 1778183956 | 20.56° C | 36% | 1020.5 hPa | 0 mm | - | - | - |
| 1778183051 | 20.56° C | 36% | 1020.6 hPa | 0 mm | - | - | - |
| 1778182449 | 20.56° C | 36% | 1020.6 hPa | 0 mm | - | - | - |
| 1778178532 | 19.44° C | 38% | 1020.9 hPa | 0 mm | - | - | - |
| 1778177026 | 19.44° C | 39% | 1020.7 hPa | 0 mm | - | - | - |
| 1778175819 | 20° C | 40% | 1020.8 hPa | 0 mm | - | - | - |
| 1778175522 | 20° C | 41% | 1020.7 hPa | 0 mm | - | - | - |
| 1778175216 | 20° C | 41% | 1020.8 hPa | 0 mm | - | - | - |
| 1778174916 | 19.44° C | 41% | 1020.7 hPa | 0 mm | - | - | - |
| 1778174013 | 19.44° C | 43% | 1020.7 hPa | 0 mm | - | - | - |
| 1778170097 | 16.11° C | 59% | 1020.8 hPa | 0 mm | - | - | - |
| 1778168587 | 13.33° C | 69% | 1020.8 hPa | 0 mm | - | - | - |
| 1778164079 | 5.56° C | 74% | 1021.1 hPa | 0 mm | - | - | - |
| 1778160453 | 5° C | 73% | 1020.6 hPa | 0 mm | - | - | - |
| 1778158949 | 5° C | 72% | 1020.5 hPa | 0 mm | - | - | - |
| 1778158644 | 5° C | 72% | 1020.6 hPa | 0 mm | - | - | - |
| 1778158039 | 5° C | 72% | 1020.5 hPa | 0.25 mm | - | - | - |
| 1778157437 | 5° C | 72% | 1020.4 hPa | 0.25 mm | - | - | - |
| 1778156531 | 5.56° C | 72% | 1020.4 hPa | 0.25 mm | - | - | - |
| 1778155629 | 5.56° C | 72% | 1020.4 hPa | 0.25 mm | - | - | - |
| 1778155326 | 5.56° C | 72% | 1020.4 hPa | 0.25 mm | - | - | - |
* Rain since midnight (hover to see other rain measurements)
** Current wind speed in m/s (hover to see current wind gust speed)